3 Jours de Pâques en Bourgogne - Etape 2 Clémencey (21) - I

Date : 27/03/2016
Distance : 6,800 km

Place Nom Licence Catégorie Club Temps min/km CN à J-60 Points Différence Nouveau CN
1 ELIAS Guilhem 17763 H16 1307PZ 0:42:49 6'17 7510 5971 -1539 7577
2 HABERKORN Guilhem 11395 H16 2105BO 0:43:35 6'24 6756 5866 -890 6749
3 WYMER Kylian 16649 H16 2508FC 0:45:39 6'42 5382 5600 +218 5597
4 PANNIER Axel 19099 H16 7807IF 0:47:33 6'59 4705 5377 +672 4969
5 VUITTON Julien 18843 H16 6911RA 0:50:45 7'27 4713 5038 +325 5109
6 PIGEON Thomas 20148 H16 1408NM 0:50:49 7'28 4604 5031 +427 4846
7 MOULET Quentin 29849 H16 2517FC 0:51:09 7'31 5434 4998 -436 5781
8 GENNARO Mathis 22689 H16 3810RA 0:51:54 7'37 5830 4926 -904 5683
9 DERIAZ Roméo 15575 H16 2105BO 0:52:31 7'43 4584 4868 +284 4676
10 AMERIJCKX Cédric 24274 H16 5907NO 0:57:47 8'29 3944 4424 +480 4227
11 ANDRIEUX Quentin 18936 H16 7305RA 1:00:06 8'50 5093 4254 -839 5139
12 FEIGNIER Eric 20662 H16 9105IF 1:03:59 9'24 3438 3996 +558 3783
13 VOLLET Lenny 28550 H16 7404RA 1:06:44 9'48 3337 3831 +494 3525
14 FENEUIL Hugo 15584 H16 5101CA 1:09:25 10'12 4756 3683 -1073 4895
15 BOEHRINGER Arthur 31299 H16 6804AL 1:11:54 10'34 4151 3556 -595 4057
16 GREFF Maël 25096 H18 0111RA 1:11:54 10'34 3870 3556 -314 3960
17 DANNECKER Victor 21442 H16 3913FC 1:23:11 12'13 3106 3073 -33 3099
18 ODERMATT Thierry 30673 H16 6803AL 1:28:45 13'03 3079 2881 -198 3079
19 AUDIN Charles 31931 H16 7407RA 1:29:19 13'08 2500 2862 +362 2655
20 GUILLOT Emile 20365 H16 7004FC 1:39:17 14'36 2510 2575 +65 2584
21 MERAT Francois 18286 H16 3913FC 1:48:10 15'54 2607 2364 -243 2583
22 PISZCZOROWICZ Théo 29889 H16 7720IF 1:55:33 16'59 2475 2213 -262 2523
23 ZAHN Hugo 22785 H16 2104BO 1:58:45 17'27 2990 2153 -837 2780
24 LE LAY Tristan 23832 H16 7720IF 2:13:19 19'36 3043 1918 -1125 3043
25 SALINGUE VINCENT 31238 H45 6203NO 3:35:10 31'38 2407 1188 -1219 2407
CHEVRIER Thomas 26466 H16 5402LO pm None 4126 0 4514
GUINOT Thibaut 15019 H16 2108BO pm None 5364 0 5504
LAVALLEE Sylvan 26029 H16 6008PI pm None 4319 0 4489